Time;durP1;ratioP1;P1;durP2;ratioP2;P2;SDS_P1;SDS_P2;PMS_P1;PMS_P2;Temp;Humidity;BMP_temperature;BMP_pressure;BME280_temperature;BME280_humidity;BME280_pressure;Samples;Min_cycle;Max_cycle;Signal;HPM_P1;HPM_P2
2024/02/12 00:02:08;;;;;;;8.52;2.25;;;;;;;;;;5031521;28;20051;-70
2024/02/12 00:04:33;;;;;;;5.53;2.25;;;;;;;;;;5030566;28;20037;-70
2024/02/12 00:06:58;;;;;;;5.70;2.37;;;;;;;;;;5031282;28;20376;-70
2024/02/12 00:09:24;;;;;;;6.20;2.30;;;;;;;;;;5030755;28;20267;-70
2024/02/12 00:11:50;;;;;;;6.65;2.53;;;;;;;;;;5025734;28;20769;-70
2024/02/12 00:14:15;;;;;;;5.78;2.40;;;;;;;;;;5031048;28;20026;-70
2024/02/12 00:16:41;;;;;;;4.35;2.33;;;;;;;;;;5030940;28;20017;-70
2024/02/12 00:19:09;;;;;;;13.43;2.80;;;;;;;;;;5030039;28;20029;-70
2024/02/12 00:21:34;;;;;;;7.03;2.65;;;;;;;;;;5030643;28;20052;-70
2024/02/12 00:24:00;;;;;;;9.80;2.65;;;;;;;;;;5031268;28;20472;-70
2024/02/12 00:26:25;;;;;;;8.32;2.63;;;;;;;;;;5029467;28;20072;-70
2024/02/12 00:28:51;;;;;;;13.63;2.92;;;;;;;;;;5026860;28;20014;-70
2024/02/12 00:31:17;;;;;;;6.00;2.72;;;;;;;;;;5031061;28;20045;-70
2024/02/12 00:33:42;;;;;;;7.82;2.42;;;;;;;;;;5031583;28;20021;-70
2024/02/12 00:36:08;;;;;;;11.00;2.90;;;;;;;;;;5029583;28;20033;-70
2024/02/12 00:38:34;;;;;;;15.30;3.30;;;;;;;;;;5028655;28;20355;-70
2024/02/12 00:40:59;;;;;;;6.90;2.80;;;;;;;;;;5029755;28;20476;-70
2024/02/12 00:43:26;;;;;;;11.07;5.20;;;;;;;;;;5030072;28;20284;-70
2024/02/12 00:45:51;;;;;;;11.48;3.40;;;;;;;;;;5030764;28;20044;-70
2024/02/12 00:48:18;;;;;;;12.67;3.50;;;;;;;;;;5030740;28;20060;-70
2024/02/12 00:50:44;;;;;;;7.28;3.35;;;;;;;;;;5028714;28;20300;-70
2024/02/12 00:53:10;;;;;;;10.15;3.95;;;;;;;;;;5030073;28;20045;-70
2024/02/12 00:55:35;;;;;;;8.43;3.40;;;;;;;;;;5026809;28;20071;-70
2024/02/12 00:58:03;;;;;;;9.05;3.45;;;;;;;;;;5029777;28;20353;-70
2024/02/12 01:00:28;;;;;;;10.02;4.03;;;;;;;;;;5030059;28;20025;-70
2024/02/12 01:02:54;;;;;;;7.63;3.80;;;;;;;;;;5030546;28;20071;-70
2024/02/12 01:05:19;;;;;;;12.48;4.43;;;;;;;;;;5029598;28;20292;-70
2024/02/12 01:07:44;;;;;;;12.20;4.28;;;;;;;;;;5028922;28;20456;-70
2024/02/12 01:10:10;;;;;;;6.00;3.13;;;;;;;;;;5028164;28;20030;-70
2024/02/12 01:12:35;;;;;;;9.63;3.83;;;;;;;;;;5030157;28;20585;-70
2024/02/12 01:15:00;;;;;;;11.43;4.25;;;;;;;;;;5028405;28;20546;-70
2024/02/12 01:17:27;;;;;;;10.00;4.03;;;;;;;;;;5044729;28;20030;-70
2024/02/12 01:19:53;;;;;;;15.50;4.80;;;;;;;;;;5030543;28;20480;-70
2024/02/12 01:22:19;;;;;;;12.80;5.57;;;;;;;;;;5028716;28;20114;-70
2024/02/12 01:24:44;;;;;;;14.32;5.47;;;;;;;;;;5029467;28;20036;-70
2024/02/12 01:27:11;;;;;;;10.05;4.82;;;;;;;;;;5029880;28;20025;-70
2024/02/12 01:29:38;;;;;;;13.30;6.30;;;;;;;;;;5022416;28;20021;-70
2024/02/12 01:32:06;;;;;;;17.95;7.53;;;;;;;;;;5028579;28;20100;-70
2024/02/12 01:34:32;;;;;;;15.63;6.72;;;;;;;;;;5030104;28;20009;-70
2024/02/12 01:36:58;;;;;;;13.98;5.70;;;;;;;;;;5028127;28;20431;-70
2024/02/12 01:39:23;;;;;;;17.70;6.57;;;;;;;;;;5029409;28;20463;-70
2024/02/12 01:41:48;;;;;;;12.67;5.97;;;;;;;;;;5029684;28;20446;-70
2024/02/12 01:44:13;;;;;;;14.30;6.33;;;;;;;;;;5029506;28;20296;-70
2024/02/12 01:46:39;;;;;;;26.73;6.30;;;;;;;;;;5028542;28;20351;-70
2024/02/12 01:49:07;;;;;;;11.30;7.15;;;;;;;;;;5029766;28;20804;-70
2024/02/12 01:51:33;;;;;;;19.77;6.78;;;;;;;;;;5028646;28;20586;-70
2024/02/12 01:53:59;;;;;;;25.30;9.32;;;;;;;;;;5029805;28;20014;-70
2024/02/12 01:56:24;;;;;;;17.85;8.30;;;;;;;;;;5029727;28;20029;-70
2024/02/12 01:58:50;;;;;;;15.48;7.10;;;;;;;;;;5029143;28;20196;-70
2024/02/12 02:01:16;;;;;;;15.35;8.18;;;;;;;;;;5028798;28;20388;-70
2024/02/12 02:03:44;;;;;;;17.20;7.15;;;;;;;;;;5028926;28;20021;-70
2024/02/12 02:06:14;;;;;;;23.17;9.00;;;;;;;;;;5027761;28;20030;-70
2024/02/12 02:08:40;;;;;;;28.38;10.00;;;;;;;;;;5053602;28;20472;-70
2024/02/12 02:11:06;;;;;;;21.92;9.68;;;;;;;;;;5028868;28;20100;-70
2024/02/12 02:13:33;;;;;;;28.88;9.60;;;;;;;;;;5029161;28;20048;-70
2024/02/12 02:15:58;;;;;;;21.50;10.27;;;;;;;;;;5029614;28;20040;-70
2024/02/12 02:18:24;;;;;;;28.35;11.38;;;;;;;;;;5029367;28;20108;-70
2024/02/12 02:20:49;;;;;;;28.40;12.50;;;;;;;;;;5023463;28;20040;-70
2024/02/12 02:23:14;;;;;;;28.77;11.50;;;;;;;;;;5027775;28;20359;-70
2024/02/12 02:25:40;;;;;;;34.90;14.00;;;;;;;;;;5028425;28;20264;-70
2024/02/12 02:28:05;;;;;;;30.13;13.45;;;;;;;;;;5029200;28;20244;-70
2024/02/12 02:30:30;;;;;;;32.50;15.02;;;;;;;;;;5029168;28;20018;-70
2024/02/12 02:32:56;;;;;;;30.80;13.38;;;;;;;;;;5029405;28;20045;-70
2024/02/12 02:35:21;;;;;;;30.60;13.40;;;;;;;;;;5028156;28;20033;-70
2024/02/12 02:37:46;;;;;;;31.77;14.18;;;;;;;;;;5028329;28;20272;-70
2024/02/12 02:40:12;;;;;;;33.47;15.25;;;;;;;;;;5029149;28;20196;-70
2024/02/12 02:42:40;;;;;;;31.67;15.07;;;;;;;;;;5027034;28;20036;-70
2024/02/12 02:45:08;;;;;;;32.25;14.00;;;;;;;;;;5028932;28;20044;-70
2024/02/12 02:47:36;;;;;;;35.20;13.77;;;;;;;;;;5028491;28;20030;-69
2024/02/12 02:50:01;;;;;;;34.40;15.07;;;;;;;;;;5032050;28;20021;-70
2024/02/12 02:52:26;;;;;;;31.20;15.57;;;;;;;;;;5028632;28;20029;-70
2024/02/12 02:54:52;;;;;;;35.42;14.25;;;;;;;;;;5031558;28;20017;-70
2024/02/12 02:57:18;;;;;;;32.38;15.75;;;;;;;;;;5032320;28;20025;-70
2024/02/12 02:59:43;;;;;;;38.53;19.17;;;;;;;;;;5033020;28;20022;-70
2024/02/12 03:02:11;;;;;;;34.58;14.93;;;;;;;;;;5032302;28;20072;-70
2024/02/12 03:04:38;;;;;;;35.67;16.70;;;;;;;;;;5031760;28;20096;-70
2024/02/12 03:07:06;;;;;;;43.20;16.00;;;;;;;;;;5029247;28;20142;-69
2024/02/12 03:09:32;;;;;;;43.70;18.75;;;;;;;;;;5032250;28;20317;-70
2024/02/12 03:11:57;;;;;;;33.58;15.27;;;;;;;;;;5031952;28;20067;-70
2024/02/12 03:14:22;;;;;;;32.23;14.70;;;;;;;;;;5031860;28;20025;-70
2024/02/12 03:16:57;;;;;;;32.60;15.88;;;;;;;;;;5032689;28;20291;-70
2024/02/12 03:19:22;;;;;;;31.65;14.43;;;;;;;;;;5032920;28;20033;-70
2024/02/12 03:21:49;;;;;;;34.47;16.73;;;;;;;;;;5031839;28;20029;-70
2024/02/12 03:24:14;;;;;;;38.47;16.52;;;;;;;;;;5030898;28;20671;-70
2024/02/12 03:26:40;;;;;;;41.63;19.15;;;;;;;;;;5032360;28;20021;-70
2024/02/12 03:29:05;;;;;;;39.45;17.40;;;;;;;;;;5032634;28;20414;-70
2024/02/12 03:31:30;;;;;;;31.73;15.13;;;;;;;;;;5031752;28;20033;-70
2024/02/12 03:33:55;;;;;;;39.00;19.25;;;;;;;;;;5031566;28;20264;-70
2024/02/12 03:36:21;;;;;;;37.83;17.40;;;;;;;;;;5032062;28;20113;-70
2024/02/12 03:38:46;;;;;;;38.50;17.23;;;;;;;;;;5029864;28;20268;-70
2024/02/12 03:41:23;;;;;;;43.22;17.35;;;;;;;;;;5030405;28;20303;-70
2024/02/12 03:43:49;;;;;;;42.85;17.45;;;;;;;;;;5031256;28;20017;-70
2024/02/12 03:46:19;;;;;;;38.67;18.10;;;;;;;;;;5031895;28;20025;-70
2024/02/12 03:59:52;;;;;;;46.97;21.50;;;;;;;;;;5028423;28;20477;-70
2024/02/12 04:02:17;;;;;;;50.67;17.15;;;;;;;;;;5029824;28;20032;-70
2024/02/12 04:04:43;;;;;;;45.95;20.10;;;;;;;;;;5031642;28;20025;-70
2024/02/12 04:07:08;;;;;;;40.42;18.13;;;;;;;;;;5031798;28;20025;-70
2024/02/12 04:09:41;;;;;;;53.17;21.55;;;;;;;;;;5029725;28;20033;-70
2024/02/12 04:12:12;;;;;;;40.00;20.33;;;;;;;;;;5030540;28;20025;-70
2024/02/12 04:14:38;;;;;;;45.20;18.00;;;;;;;;;;5028781;28;20203;-70
2024/02/12 04:17:05;;;;;;;45.08;20.27;;;;;;;;;;5030044;28;20010;-70
2024/02/12 04:19:32;;;;;;;48.92;20.58;;;;;;;;;;5031325;28;20108;-70
2024/02/12 04:21:57;;;;;;;51.72;19.73;;;;;;;;;;5030759;28;20055;-70
2024/02/12 04:24:28;;;;;;;55.80;19.97;;;;;;;;;;5030513;28;20440;-70
2024/02/12 04:26:53;;;;;;;49.08;21.05;;;;;;;;;;5028962;28;20256;-70
2024/02/12 04:29:18;;;;;;;49.08;20.52;;;;;;;;;;5028019;28;20380;-70
2024/02/12 04:31:44;;;;;;;57.70;20.77;;;;;;;;;;5029968;28;20040;-70
2024/02/12 04:34:09;;;;;;;47.60;19.30;;;;;;;;;;5030619;28;20464;-70
2024/02/12 04:36:38;;;;;;;44.63;19.40;;;;;;;;;;5029953;28;20038;-70
2024/02/12 04:39:04;;;;;;;48.50;21.50;;;;;;;;;;5025039;28;20017;-70
2024/02/12 04:41:29;;;;;;;52.35;19.92;;;;;;;;;;5029657;28;20113;-69
2024/02/12 04:43:55;;;;;;;56.50;25.20;;;;;;;;;;5030831;28;20020;-70
2024/02/12 04:46:20;;;;;;;51.03;23.10;;;;;;;;;;5029825;28;20030;-70
2024/02/12 04:48:45;;;;;;;51.30;21.30;;;;;;;;;;5030845;28;20353;-70
2024/02/12 04:51:11;;;;;;;54.80;22.17;;;;;;;;;;5029852;28;20574;-70
2024/02/12 04:53:36;;;;;;;49.30;19.73;;;;;;;;;;5029335;28;20268;-70
2024/02/12 04:56:04;;;;;;;55.55;23.77;;;;;;;;;;5029945;28;20018;-70
2024/02/12 04:58:29;;;;;;;54.20;22.33;;;;;;;;;;5030279;28;20116;-69
2024/02/12 05:00:55;;;;;;;51.20;20.38;;;;;;;;;;5030340;28;20487;-70
2024/02/12 05:03:20;;;;;;;55.85;23.00;;;;;;;;;;5029784;28;20032;-70
2024/02/12 05:05:45;;;;;;;51.58;21.35;;;;;;;;;;5029885;28;20025;-70
2024/02/12 05:08:11;;;;;;;50.43;20.87;;;;;;;;;;5030430;28;20361;-70
2024/02/12 05:10:37;;;;;;;45.67;20.70;;;;;;;;;;5029327;28;20367;-70
2024/02/12 05:13:02;;;;;;;46.08;20.48;;;;;;;;;;5030289;28;20256;-70
2024/02/12 05:15:30;;;;;;;43.97;22.42;;;;;;;;;;5029656;28;20091;-70
2024/02/12 05:18:06;;;;;;;47.60;19.92;;;;;;;;;;5030100;28;20025;-70
2024/02/12 05:23:16;;;;;;;45.83;18.85;;;;;;;;;;5029354;28;20036;-70
2024/02/12 05:25:43;;;;;;;40.58;17.65;;;;;;;;;;5029015;28;20020;-70
2024/02/12 05:28:08;;;;;;;47.78;19.25;;;;;;;;;;5029818;28;20018;-70
2024/02/12 05:30:34;;;;;;;43.57;20.00;;;;;;;;;;5029198;28;20017;-70
2024/02/12 05:32:59;;;;;;;41.80;20.45;;;;;;;;;;5030103;28;20797;-70
2024/02/12 05:35:24;;;;;;;41.90;17.55;;;;;;;;;;5027314;28;20025;-70
2024/02/12 05:37:49;;;;;;;58.30;19.53;;;;;;;;;;5029625;28;20040;-70
2024/02/12 05:40:15;;;;;;;46.20;19.50;;;;;;;;;;5028512;28;20287;-70
2024/02/12 05:42:40;;;;;;;38.30;18.10;;;;;;;;;;5029465;28;20339;-69
2024/02/12 05:45:06;;;;;;;42.95;18.45;;;;;;;;;;5028137;28;20100;-70
2024/02/12 05:47:31;;;;;;;54.13;18.27;;;;;;;;;;5029225;28;20025;-70
2024/02/12 05:49:57;;;;;;;57.10;21.67;;;;;;;;;;5029918;28;20029;-70
2024/02/12 05:52:23;;;;;;;56.90;21.27;;;;;;;;;;5029317;28;20314;-70
2024/02/12 05:54:48;;;;;;;49.67;19.15;;;;;;;;;;5028864;28;20063;-70
2024/02/12 05:57:13;;;;;;;43.27;18.23;;;;;;;;;;5028458;28;20029;-70
2024/02/12 05:59:39;;;;;;;50.67;21.27;;;;;;;;;;5028334;28;20321;-70
2024/02/12 06:02:04;;;;;;;49.73;17.90;;;;;;;;;;5028817;28;20420;-70
2024/02/12 06:04:32;;;;;;;46.05;19.55;;;;;;;;;;5026891;28;20320;-70
2024/02/12 06:06:58;;;;;;;42.15;20.33;;;;;;;;;;5028576;28;20155;-70
2024/02/12 06:09:24;;;;;;;51.50;22.05;;;;;;;;;;5027943;28;20029;-70
2024/02/12 06:11:49;;;;;;;48.95;20.48;;;;;;;;;;5022885;28;20528;-70
2024/02/12 06:14:14;;;;;;;45.00;18.50;;;;;;;;;;5028644;28;20037;-70
2024/02/12 06:16:39;;;;;;;48.70;19.30;;;;;;;;;;5028721;28;20259;-70
2024/02/12 06:19:07;;;;;;;51.33;20.53;;;;;;;;;;5029369;28;20355;-73
2024/02/12 06:21:32;;;;;;;45.92;19.20;;;;;;;;;;5028044;28;20663;-70
2024/02/12 06:23:58;;;;;;;50.40;19.15;;;;;;;;;;5030471;28;20036;-70
2024/02/12 06:26:24;;;;;;;45.10;18.63;;;;;;;;;;5032283;28;20017;-70
2024/02/12 06:28:50;;;;;;;54.80;21.93;;;;;;;;;;5033244;28;20756;-70
2024/02/12 06:31:16;;;;;;;50.88;19.35;;;;;;;;;;5033251;28;20264;-70
2024/02/12 06:33:42;;;;;;;51.25;20.90;;;;;;;;;;5031850;28;20087;-70
2024/02/12 06:36:07;;;;;;;47.85;20.30;;;;;;;;;;5032160;28;20457;-70
2024/02/12 06:38:32;;;;;;;45.97;20.17;;;;;;;;;;5032868;28;20025;-70
2024/02/12 06:40:58;;;;;;;47.87;19.63;;;;;;;;;;5030298;28;20028;-70
2024/02/12 06:43:24;;;;;;;56.20;21.58;;;;;;;;;;5031333;28;20628;-70
2024/02/12 06:45:49;;;;;;;68.90;22.93;;;;;;;;;;5030536;28;20052;-70
2024/02/12 06:48:14;;;;;;;52.90;20.83;;;;;;;;;;5028845;28;20343;-70
2024/02/12 06:50:39;;;;;;;49.87;22.77;;;;;;;;;;5032596;28;20076;-70
2024/02/12 06:53:04;;;;;;;56.67;22.23;;;;;;;;;;5030596;28;20266;-70
2024/02/12 06:55:31;;;;;;;44.10;21.48;;;;;;;;;;5032699;28;20029;-70
2024/02/12 06:57:57;;;;;;;59.67;20.42;;;;;;;;;;5031810;28;20045;-70
2024/02/12 07:00:22;;;;;;;51.60;19.50;;;;;;;;;;5030763;28;20519;-70
2024/02/12 07:02:47;;;;;;;53.17;20.80;;;;;;;;;;5030557;28;20039;-70
2024/02/12 07:05:16;;;;;;;51.60;21.67;;;;;;;;;;5032553;28;20022;-70
2024/02/12 07:07:42;;;;;;;52.33;22.05;;;;;;;;;;5031698;28;20013;-70
2024/02/12 07:10:09;;;;;;;53.67;20.88;;;;;;;;;;5029869;28;20465;-70
2024/02/12 07:12:34;;;;;;;47.50;18.80;;;;;;;;;;5030964;28;20021;-70
2024/02/12 07:14:59;;;;;;;53.80;21.97;;;;;;;;;;5032243;28;20111;-70
2024/02/12 07:17:24;;;;;;;53.25;17.10;;;;;;;;;;5031220;28;20716;-70
2024/02/12 07:19:49;;;;;;;53.90;20.63;;;;;;;;;;5030344;28;20203;-70
2024/02/12 07:22:15;;;;;;;57.30;24.60;;;;;;;;;;5032490;28;20294;-70
2024/02/12 07:24:44;;;;;;;51.00;18.80;;;;;;;;;;5030145;28;20288;-70
2024/02/12 07:27:09;;;;;;;54.75;19.90;;;;;;;;;;5031731;28;20064;-70
2024/02/12 07:29:35;;;;;;;46.20;20.83;;;;;;;;;;5032053;28;20025;-70
2024/02/12 07:32:02;;;;;;;46.97;20.93;;;;;;;;;;5032231;28;20264;-70
2024/02/12 07:34:28;;;;;;;45.40;18.27;;;;;;;;;;5030153;28;20271;-70
2024/02/12 07:36:53;;;;;;;46.97;20.55;;;;;;;;;;5029067;28;20056;-70
2024/02/12 07:39:19;;;;;;;44.90;19.92;;;;;;;;;;5029187;28;20044;-70
2024/02/12 07:41:44;;;;;;;47.67;19.15;;;;;;;;;;5030440;28;20027;-70
2024/02/12 07:44:10;;;;;;;47.57;19.97;;;;;;;;;;5031246;28;20036;-70
2024/02/12 07:46:36;;;;;;;47.40;18.30;;;;;;;;;;5031606;28;20264;-70
2024/02/12 07:49:04;;;;;;;40.17;17.20;;;;;;;;;;5032386;28;20049;-70
2024/02/12 07:51:29;;;;;;;52.00;18.65;;;;;;;;;;5032055;28;20024;-70
2024/02/12 07:53:54;;;;;;;36.00;16.43;;;;;;;;;;5031389;28;20025;-70
2024/02/12 07:56:19;;;;;;;46.10;20.85;;;;;;;;;;5032243;28;20377;-70
2024/02/12 07:58:44;;;;;;;45.23;17.50;;;;;;;;;;5030163;28;20026;-69
2024/02/12 08:01:10;;;;;;;46.78;18.92;;;;;;;;;;5029332;28;20865;-69
2024/02/12 08:03:35;;;;;;;50.60;17.90;;;;;;;;;;5025085;28;20018;-70
2024/02/12 08:06:01;;;;;;;41.38;16.35;;;;;;;;;;5030763;28;20017;-70
2024/02/12 08:08:27;;;;;;;51.00;18.25;;;;;;;;;;5029748;28;20049;-69
2024/02/12 08:10:52;;;;;;;40.78;16.48;;;;;;;;;;5030695;28;20049;-69
2024/02/12 08:13:17;;;;;;;53.25;17.98;;;;;;;;;;5031661;28;20361;-70
2024/02/12 08:15:44;;;;;;;43.83;17.73;;;;;;;;;;5031167;28;20032;-70
2024/02/12 08:18:09;;;;;;;43.57;18.17;;;;;;;;;;5031688;28;20037;-70
2024/02/12 08:20:35;;;;;;;49.15;17.95;;;;;;;;;;5030881;28;20260;-69
2024/02/12 08:23:00;;;;;;;50.13;18.45;;;;;;;;;;5030435;28;20076;-69
2024/02/12 08:25:26;;;;;;;44.40;17.57;;;;;;;;;;5027735;28;20056;-69
2024/02/12 08:27:53;;;;;;;37.10;14.93;;;;;;;;;;5029446;28;20268;-69
2024/02/12 08:30:18;;;;;;;55.30;16.10;;;;;;;;;;5028639;28;21055;-69
2024/02/12 08:32:44;;;;;;;44.95;18.65;;;;;;;;;;5036851;22;20489;-69
2024/02/12 08:35:09;;;;;;;41.97;17.70;;;;;;;;;;5012767;28;20029;-70
2024/02/12 08:37:35;;;;;;;45.17;17.58;;;;;;;;;;5013032;28;20029;-70
2024/02/12 08:40:00;;;;;;;55.17;19.10;;;;;;;;;;5018825;28;20041;-69
2024/02/12 08:42:26;;;;;;;52.60;18.63;;;;;;;;;;4999951;28;20041;-69
2024/02/12 08:44:51;;;;;;;43.08;15.98;;;;;;;;;;4999331;28;20420;-70
2024/02/12 08:47:17;;;;;;;50.70;16.35;;;;;;;;;;4993016;28;20185;-70
2024/02/12 08:49:43;;;;;;;38.00;16.75;;;;;;;;;;4992907;28;20045;-72
2024/02/12 08:52:08;;;;;;;38.42;17.27;;;;;;;;;;4993253;28;20044;-70
2024/02/12 08:54:34;;;;;;;38.65;14.70;;;;;;;;;;4994104;28;20422;-70
2024/02/12 08:56:59;;;;;;;45.70;15.70;;;;;;;;;;4993130;28;20493;-70
2024/02/12 08:59:25;;;;;;;38.30;15.30;;;;;;;;;;4991523;28;20025;-71
2024/02/12 09:01:51;;;;;;;42.78;14.13;;;;;;;;;;4992934;28;20579;-70
2024/02/12 09:04:16;;;;;;;32.22;13.48;;;;;;;;;;4993080;28;20022;-70
2024/02/12 09:06:42;;;;;;;32.65;12.88;;;;;;;;;;4992248;28;20073;-69
2024/02/12 09:09:07;;;;;;;42.03;16.30;;;;;;;;;;4995117;28;20683;-69
2024/02/12 09:11:32;;;;;;;36.63;12.57;;;;;;;;;;4995086;28;20022;-70
2024/02/12 09:13:57;;;;;;;40.10;14.43;;;;;;;;;;4993547;28;20033;-70
2024/02/12 09:16:23;;;;;;;35.77;14.13;;;;;;;;;;4992635;28;20283;-70
2024/02/12 09:18:48;;;;;;;34.28;15.13;;;;;;;;;;4995112;28;20810;-70
2024/02/12 09:21:13;;;;;;;29.65;12.93;;;;;;;;;;4992704;28;20481;-70
2024/02/12 09:23:38;;;;;;;31.25;12.95;;;;;;;;;;4993336;28;20034;-70
2024/02/12 09:26:07;;;;;;;35.10;13.80;;;;;;;;;;4996238;28;20101;-70
2024/02/12 09:28:32;;;;;;;32.15;11.85;;;;;;;;;;4994647;28;20573;-70
2024/02/12 09:30:59;;;;;;;33.85;11.43;;;;;;;;;;4995484;28;20100;-70
2024/02/12 09:33:25;;;;;;;44.25;13.13;;;;;;;;;;4994391;28;20087;-70
2024/02/12 09:35:50;;;;;;;29.38;9.30;;;;;;;;;;4994131;28;20056;-70
2024/02/12 09:38:15;;;;;;;33.83;13.17;;;;;;;;;;4999253;28;20396;-70
2024/02/12 09:40:42;;;;;;;34.42;11.93;;;;;;;;;;4992414;28;20265;-70
2024/02/12 09:43:09;;;;;;;25.25;11.02;;;;;;;;;;4996283;28;20037;-70
2024/02/12 09:45:38;;;;;;;21.35;9.60;;;;;;;;;;4995174;28;20026;-70
2024/02/12 09:48:03;;;;;;;17.45;9.10;;;;;;;;;;4994901;28;20026;-70
2024/02/12 09:50:29;;;;;;;20.05;6.85;;;;;;;;;;4992989;28;20129;-70
2024/02/12 09:52:58;;;;;;;22.85;9.80;;;;;;;;;;4997915;28;20018;-70
2024/02/12 09:55:23;;;;;;;20.08;7.18;;;;;;;;;;4996479;28;20022;-70
2024/02/12 09:57:49;;;;;;;26.42;6.43;;;;;;;;;;4994104;28;20226;-70
2024/02/12 10:00:14;;;;;;;19.67;8.90;;;;;;;;;;5002553;28;20045;-70
2024/02/12 10:02:40;;;;;;;11.63;3.78;;;;;;;;;;4992692;28;20052;-70
2024/02/12 10:05:10;;;;;;;16.13;8.25;;;;;;;;;;4998899;28;20121;-70
2024/02/12 10:07:39;;;;;;;19.73;8.20;;;;;;;;;;4996627;28;20384;-70
2024/02/12 10:10:06;;;;;;;20.58;8.10;;;;;;;;;;4994190;28;20366;-70
2024/02/12 10:12:31;;;;;;;20.92;8.10;;;;;;;;;;4990580;28;20077;-70
2024/02/12 10:14:56;;;;;;;24.47;8.27;;;;;;;;;;4990296;28;20571;-69
2024/02/12 10:17:22;;;;;;;22.67;7.93;;;;;;;;;;4992705;28;20285;-70
2024/02/12 10:19:47;;;;;;;16.38;6.50;;;;;;;;;;5002248;28;20695;-70
2024/02/12 10:22:12;;;;;;;20.53;7.10;;;;;;;;;;4989758;28;20048;-70
2024/02/12 10:24:40;;;;;;;9.57;3.75;;;;;;;;;;4995366;28;20297;-70
2024/02/12 10:27:07;;;;;;;11.50;5.55;;;;;;;;;;4990039;28;20033;-70
2024/02/12 10:29:32;;;;;;;18.17;7.15;;;;;;;;;;4990336;28;20034;-69
2024/02/12 10:31:58;;;;;;;26.88;7.78;;;;;;;;;;5003245;28;20022;-69
2024/02/12 10:34:24;;;;;;;27.60;6.95;;;;;;;;;;4993607;28;20023;-69
2024/02/12 10:36:53;;;;;;;29.17;8.52;;;;;;;;;;5000403;28;20026;-69
2024/02/12 10:39:19;;;;;;;22.67;8.27;;;;;;;;;;4998683;28;20101;-69
2024/02/12 10:41:45;;;;;;;19.75;7.03;;;;;;;;;;4999331;28;20034;-69
2024/02/12 10:44:12;;;;;;;16.70;7.03;;;;;;;;;;5002244;28;20056;-69
2024/02/12 10:46:38;;;;;;;21.45;8.95;;;;;;;;;;5000108;28;20620;-69
2024/02/12 10:49:04;;;;;;;18.35;6.03;;;;;;;;;;4989483;28;20022;-69
2024/02/12 10:51:29;;;;;;;15.15;5.88;;;;;;;;;;4996733;28;20049;-69
2024/02/12 10:53:59;;;;;;;26.50;7.10;;;;;;;;;;4998604;28;20447;-70
2024/02/12 10:56:24;;;;;;;18.13;6.10;;;;;;;;;;4988079;28;20014;-69
2024/02/12 10:58:49;;;;;;;20.33;6.57;;;;;;;;;;4991731;28;20030;-69
2024/02/12 11:01:15;;;;;;;20.77;5.32;;;;;;;;;;5002926;28;20037;-69
2024/02/12 11:03:43;;;;;;;20.00;6.13;;;;;;;;;;5008101;28;20022;-69
2024/02/12 11:06:10;;;;;;;16.73;6.13;;;;;;;;;;5000443;28;20021;-70
2024/02/12 11:08:40;;;;;;;14.93;5.90;;;;;;;;;;5006115;28;20469;-70
2024/02/12 11:11:15;;;;;;;18.75;5.18;;;;;;;;;;4998938;28;20033;-70
2024/02/12 11:13:43;;;;;;;13.30;3.92;;;;;;;;;;4989492;28;20041;-69
2024/02/12 11:16:15;;;;;;;17.00;4.50;;;;;;;;;;4989084;28;20027;-69
2024/02/12 11:18:40;;;;;;;13.20;4.57;;;;;;;;;;4998848;28;20022;-69
2024/02/12 11:21:08;;;;;;;13.47;4.60;;;;;;;;;;5011717;28;20018;-69
2024/02/12 11:23:34;;;;;;;17.00;3.95;;;;;;;;;;5011837;28;20352;-69
2024/02/12 11:25:59;;;;;;;17.70;5.05;;;;;;;;;;5011905;28;20013;-69
2024/02/12 11:28:29;;;;;;;20.33;6.05;;;;;;;;;;5012363;28;20381;-69
2024/02/12 11:30:54;;;;;;;20.08;5.57;;;;;;;;;;4999177;28;20585;-69
2024/02/12 11:33:19;;;;;;;11.47;4.73;;;;;;;;;;5012209;28;20120;-69
2024/02/12 11:35:45;;;;;;;16.15;5.85;;;;;;;;;;5003042;28;20261;-69
2024/02/12 11:38:10;;;;;;;14.55;4.85;;;;;;;;;;4993134;28;20022;-69
2024/02/12 11:40:35;;;;;;;20.75;5.30;;;;;;;;;;4997570;28;20500;-69
2024/02/12 11:43:01;;;;;;;23.17;3.90;;;;;;;;;;4997500;28;20501;-69
2024/02/12 11:45:26;;;;;;;9.10;3.60;;;;;;;;;;4998691;28;20277;-70
2024/02/12 11:47:51;;;;;;;13.75;4.32;;;;;;;;;;4991597;28;20486;-69
2024/02/12 11:50:40;;;;;;;8.85;3.60;;;;;;;;;;4997128;28;20022;-69
2024/02/12 11:53:05;;;;;;;9.43;3.67;;;;;;;;;;5000101;28;20022;-69
2024/02/12 11:55:31;;;;;;;14.37;4.37;;;;;;;;;;4993462;28;20397;-69
2024/02/12 11:57:58;;;;;;;11.18;3.53;;;;;;;;;;4999928;28;20271;-69
2024/02/12 12:00:23;;;;;;;11.98;3.70;;;;;;;;;;5008958;28;20030;-69
2024/02/12 12:02:51;;;;;;;10.17;3.17;;;;;;;;;;5003150;28;20029;-69
2024/02/12 12:05:23;;;;;;;10.27;3.30;;;;;;;;;;5005305;28;20342;-69
2024/02/12 12:07:49;;;;;;;7.30;3.30;;;;;;;;;;4996089;28;20489;-69
2024/02/12 12:10:25;;;;;;;18.38;4.10;;;;;;;;;;4998128;28;20164;-70
2024/02/12 12:12:50;;;;;;;9.73;2.58;;;;;;;;;;4990769;28;20025;-69
2024/02/12 12:15:16;;;;;;;9.15;2.35;;;;;;;;;;4989626;28;20906;-69
2024/02/12 12:17:41;;;;;;;10.05;2.95;;;;;;;;;;4990819;28;20030;-69
2024/02/12 12:20:09;;;;;;;11.35;3.30;;;;;;;;;;4989395;28;20166;-69
2024/02/12 12:22:37;;;;;;;18.23;3.95;;;;;;;;;;4989441;28;20026;-69
2024/02/12 12:25:02;;;;;;;14.85;3.20;;;;;;;;;;4990808;28;20029;-69
2024/02/12 12:27:27;;;;;;;8.52;3.10;;;;;;;;;;4991017;28;20286;-69
2024/02/12 12:29:54;;;;;;;8.23;2.55;;;;;;;;;;4988506;28;20101;-69
2024/02/12 12:32:19;;;;;;;11.23;2.25;;;;;;;;;;4991931;28;20363;-69
2024/02/12 12:34:44;;;;;;;8.70;2.60;;;;;;;;;;4990351;28;20100;-69
2024/02/12 12:37:13;;;;;;;13.20;3.05;;;;;;;;;;4990597;28;20065;-69
2024/02/12 12:39:38;;;;;;;13.88;2.80;;;;;;;;;;4990748;28;20222;-69
2024/02/12 12:42:06;;;;;;;7.65;3.03;;;;;;;;;;4983054;28;20489;-69
2024/02/12 12:44:34;;;;;;;11.20;2.78;;;;;;;;;;4989881;28;20026;-70
2024/02/12 12:46:59;;;;;;;12.10;2.85;;;;;;;;;;4998828;28;20041;-70
2024/02/12 12:49:24;;;;;;;11.53;2.50;;;;;;;;;;4995606;28;20109;-70
2024/02/12 12:51:50;;;;;;;11.83;2.13;;;;;;;;;;4991727;28;20270;-69
2024/02/12 12:54:15;;;;;;;10.20;3.17;;;;;;;;;;4993279;28;20042;-69
2024/02/12 12:56:40;;;;;;;11.88;3.50;;;;;;;;;;4992164;28;20254;-70
2024/02/12 12:59:05;;;;;;;14.43;2.78;;;;;;;;;;4990780;28;20033;-69
2024/02/12 13:01:31;;;;;;;12.13;2.50;;;;;;;;;;4990533;28;20528;-69
2024/02/12 13:03:59;;;;;;;15.02;3.13;;;;;;;;;;4990986;28;20332;-69
2024/02/12 13:06:24;;;;;;;15.35;2.80;;;;;;;;;;4989711;28;20022;-69
2024/02/12 13:08:49;;;;;;;16.67;2.03;;;;;;;;;;4989072;28;20077;-70
2024/02/12 13:11:15;;;;;;;13.85;3.33;;;;;;;;;;4996408;28;20018;-70
2024/02/12 13:13:40;;;;;;;6.60;2.43;;;;;;;;;;4992954;28;20613;-70
2024/02/12 13:16:07;;;;;;;9.27;2.67;;;;;;;;;;4990159;28;20307;-70
2024/02/12 13:18:32;;;;;;;16.65;2.78;;;;;;;;;;4991020;28;20033;-70
2024/02/12 13:20:57;;;;;;;12.40;2.13;;;;;;;;;;4990167;28;20536;-70
2024/02/12 13:23:22;;;;;;;12.70;2.45;;;;;;;;;;4992378;28;20300;-70
2024/02/12 13:25:48;;;;;;;6.97;2.25;;;;;;;;;;4994657;28;20101;-70
2024/02/12 13:28:15;;;;;;;10.57;1.98;;;;;;;;;;4990071;28;20431;-70
2024/02/12 13:30:43;;;;;;;12.45;1.98;;;;;;;;;;4990773;28;20022;-70
2024/02/12 13:33:08;;;;;;;6.07;1.80;;;;;;;;;;4990161;28;20084;-69
2024/02/12 13:35:37;;;;;;;4.33;1.70;;;;;;;;;;4988989;28;20038;-70
2024/02/12 13:38:03;;;;;;;8.30;2.25;;;;;;;;;;4985475;28;20352;-70
2024/02/12 13:40:29;;;;;;;9.70;2.17;;;;;;;;;;4990495;28;20524;-70
2024/02/12 13:42:55;;;;;;;13.02;1.75;;;;;;;;;;4986900;28;20027;-69
2024/02/12 13:45:20;;;;;;;9.57;1.92;;;;;;;;;;4988836;28;20099;-69
2024/02/12 13:47:45;;;;;;;11.67;2.33;;;;;;;;;;4986971;28;20022;-70
2024/02/12 13:50:11;;;;;;;12.98;3.28;;;;;;;;;;4988621;28;20258;-70
2024/02/12 13:52:40;;;;;;;7.05;2.25;;;;;;;;;;4991375;28;20046;-69
2024/02/12 13:55:11;;;;;;;9.15;2.38;;;;;;;;;;4988055;28;20050;-69
2024/02/12 13:57:44;;;;;;;8.45;2.05;;;;;;;;;;4993465;28;20047;-69
2024/02/12 14:00:19;;;;;;;12.80;2.20;;;;;;;;;;4993843;28;20053;-70
2024/02/12 14:02:47;;;;;;;11.32;2.20;;;;;;;;;;4996684;28;20068;-69
2024/02/12 14:05:12;;;;;;;10.07;2.72;;;;;;;;;;4989912;28;20466;-69
2024/02/12 14:07:38;;;;;;;5.07;2.03;;;;;;;;;;4990125;28;20066;-69
2024/02/12 14:10:04;;;;;;;8.00;1.60;;;;;;;;;;4989404;28;20362;-69
2024/02/12 14:12:29;;;;;;;7.13;2.47;;;;;;;;;;4998016;28;20017;-70
2024/02/12 14:14:55;;;;;;;7.87;1.87;;;;;;;;;;4990210;28;20022;-70
2024/02/12 14:17:20;;;;;;;18.13;2.30;;;;;;;;;;4989396;28;20774;-70
2024/02/12 14:19:45;;;;;;;7.80;2.00;;;;;;;;;;4990513;28;20036;-70
2024/02/12 14:22:10;;;;;;;10.30;2.20;;;;;;;;;;4990418;28;20102;-71
2024/02/12 14:24:38;;;;;;;8.98;1.92;;;;;;;;;;4988596;28;20493;-70
2024/02/12 14:27:03;;;;;;;13.50;2.05;;;;;;;;;;4996408;28;20101;-70
2024/02/12 14:29:28;;;;;;;10.57;2.70;;;;;;;;;;4992875;28;20137;-70
2024/02/12 14:31:54;;;;;;;14.03;2.43;;;;;;;;;;4990070;28;20131;-70
2024/02/12 14:34:19;;;;;;;14.00;2.33;;;;;;;;;;4990056;28;20346;-70